sensor_id;sensor_type;location;lat;lon;timestamp;pressure;altitude;pressure_sealevel;temperature;humidity
52469;BME280;38381;53.688;10.776;2023-06-14T00:03:21;101565.59;;;14.98;67.66
52469;BME280;38381;53.688;10.776;2023-06-14T00:08:22;101575.19;;;14.93;67.78
52469;BME280;38381;53.688;10.776;2023-06-14T00:13:24;101574.25;;;14.76;68.54
52469;BME280;38381;53.688;10.776;2023-06-14T00:18:25;101573.41;;;14.77;68.33
52469;BME280;38381;53.688;10.776;2023-06-14T00:23:26;101578.59;;;14.74;68.51
52469;BME280;38381;53.688;10.776;2023-06-14T00:28:27;101586.44;;;14.69;68.68
52469;BME280;38381;53.688;10.776;2023-06-14T00:33:27;101586.44;;;14.64;68.93
52469;BME280;38381;53.688;10.776;2023-06-14T00:38:28;101592.50;;;14.60;69.89
52469;BME280;38381;53.688;10.776;2023-06-14T00:43:28;101588.16;;;14.59;69.58
52469;BME280;38381;53.688;10.776;2023-06-14T00:48:29;101596.78;;;14.54;70.13
52469;BME280;38381;53.688;10.776;2023-06-14T00:53:31;101594.16;;;14.47;69.68
52469;BME280;38381;53.688;10.776;2023-06-14T00:58:34;101605.44;;;14.39;69.77
52469;BME280;38381;53.688;10.776;2023-06-14T01:03:35;101604.53;;;14.35;70.18
52469;BME280;38381;53.688;10.776;2023-06-14T01:08:47;101598.44;;;14.28;70.88
52469;BME280;38381;53.688;10.776;2023-06-14T01:13:51;101606.22;;;14.21;71.63
52469;BME280;38381;53.688;10.776;2023-06-14T01:18:53;101607.94;;;14.16;72.47
52469;BME280;38381;53.688;10.776;2023-06-14T01:23:56;101607.94;;;14.11;72.49
52469;BME280;38381;53.688;10.776;2023-06-14T01:28:57;101613.09;;;14.03;72.55
52469;BME280;38381;53.688;10.776;2023-06-14T01:33:58;101620.00;;;13.97;73.61
52469;BME280;38381;53.688;10.776;2023-06-14T01:38:59;101618.28;;;13.97;73.84
52469;BME280;38381;53.688;10.776;2023-06-14T01:44:00;101613.03;;;13.96;73.61
52469;BME280;38381;53.688;10.776;2023-06-14T01:49:01;101617.38;;;13.94;73.91
52469;BME280;38381;53.688;10.776;2023-06-14T01:54:02;101624.31;;;13.92;74.20
52469;BME280;38381;53.688;10.776;2023-06-14T01:59:02;101626.03;;;13.89;73.97
52469;BME280;38381;53.688;10.776;2023-06-14T02:04:03;101623.38;;;13.82;74.63
52469;BME280;38381;53.688;10.776;2023-06-14T02:09:03;101625.13;;;13.81;74.44
52469;BME280;38381;53.688;10.776;2023-06-14T02:14:04;101623.34;;;13.77;74.28
52469;BME280;38381;53.688;10.776;2023-06-14T02:19:05;101626.81;;;13.78;74.75
52469;BME280;38381;53.688;10.776;2023-06-14T02:24:06;101638.97;;;13.74;75.28
52469;BME280;38381;53.688;10.776;2023-06-14T02:29:07;101634.66;;;13.76;74.96
52469;BME280;38381;53.688;10.776;2023-06-14T02:34:09;101634.63;;;13.75;74.90
52469;BME280;38381;53.688;10.776;2023-06-14T02:39:11;101628.53;;;13.71;75.25
52469;BME280;38381;53.688;10.776;2023-06-14T02:44:14;101630.22;;;13.66;75.71
52469;BME280;38381;53.688;10.776;2023-06-14T02:49:15;101631.94;;;13.62;76.38
52469;BME280;38381;53.688;10.776;2023-06-14T02:54:15;101631.00;;;13.57;76.71
52469;BME280;38381;53.688;10.776;2023-06-14T02:59:16;101632.78;;;13.61;76.29
52469;BME280;38381;53.688;10.776;2023-06-14T03:04:17;101634.50;;;13.59;76.44
52469;BME280;38381;53.688;10.776;2023-06-14T03:09:17;101642.31;;;13.59;76.67
52469;BME280;38381;53.688;10.776;2023-06-14T03:14:18;101642.34;;;13.61;77.23
52469;BME280;38381;53.688;10.776;2023-06-14T03:19:19;101655.38;;;13.61;76.91
52469;BME280;38381;53.688;10.776;2023-06-14T03:24:20;101657.09;;;13.59;76.92
52469;BME280;38381;53.688;10.776;2023-06-14T03:29:20;101658.78;;;13.55;77.54
52469;BME280;38381;53.688;10.776;2023-06-14T03:34:21;101658.78;;;13.55;77.51
52469;BME280;38381;53.688;10.776;2023-06-14T03:39:22;101664.88;;;13.57;77.95
52469;BME280;38381;53.688;10.776;2023-06-14T03:44:22;101674.47;;;13.58;77.15
52469;BME280;38381;53.688;10.776;2023-06-14T03:49:23;101671.91;;;13.63;78.05
52469;BME280;38381;53.688;10.776;2023-06-14T03:54:23;101672.81;;;13.66;77.85
52469;BME280;38381;53.688;10.776;2023-06-14T03:59:24;101671.88;;;13.61;77.98
52469;BME280;38381;53.688;10.776;2023-06-14T04:04:25;101679.75;;;13.67;79.15
52469;BME280;38381;53.688;10.776;2023-06-14T04:09:30;101681.50;;;13.68;79.02
52469;BME280;38381;53.688;10.776;2023-06-14T04:14:31;101692.94;;;13.84;78.73
52469;BME280;38381;53.688;10.776;2023-06-14T04:19:33;101692.31;;;14.19;78.57
52469;BME280;38381;53.688;10.776;2023-06-14T04:24:33;101686.56;;;14.82;76.18
52469;BME280;38381;53.688;10.776;2023-06-14T04:29:34;101690.19;;;15.33;75.76
52469;BME280;38381;53.688;10.776;2023-06-14T04:34:36;101686.75;;;15.86;73.68
52469;BME280;38381;53.688;10.776;2023-06-14T04:39:37;101691.91;;;16.43;72.28
52469;BME280;38381;53.688;10.776;2023-06-14T04:44:38;101704.00;;;16.86;69.62
52469;BME280;38381;53.688;10.776;2023-06-14T04:49:40;101689.72;;;17.36;69.26
52469;BME280;38381;53.688;10.776;2023-06-14T04:54:41;101686.88;;;17.70;68.39
52469;BME280;38381;53.688;10.776;2023-06-14T04:59:43;101691.47;;;18.39;66.72
52469;BME280;38381;53.688;10.776;2023-06-14T05:04:44;101698.84;;;18.85;65.44
52469;BME280;38381;53.688;10.776;2023-06-14T05:09:45;101700.94;;;19.24;63.69
52469;BME280;38381;53.688;10.776;2023-06-14T05:14:45;101705.13;;;19.36;62.87
52469;BME280;38381;53.688;10.776;2023-06-14T05:19:46;101700.88;;;19.84;61.70
52469;BME280;38381;53.688;10.776;2023-06-14T05:24:47;101707.31;;;20.18;59.74
52469;BME280;38381;53.688;10.776;2023-06-14T05:29:48;101706.91;;;20.41;58.89
52469;BME280;38381;53.688;10.776;2023-06-14T05:34:49;101715.91;;;20.74;57.43
52469;BME280;38381;53.688;10.776;2023-06-14T05:39:50;101706.50;;;21.04;57.34
52469;BME280;38381;53.688;10.776;2023-06-14T05:44:50;101710.69;;;21.13;56.83
52469;BME280;38381;53.688;10.776;2023-06-14T05:49:51;101705.09;;;21.27;55.23
52469;BME280;38381;53.688;10.776;2023-06-14T05:54:51;101714.13;;;21.92;53.75
52469;BME280;38381;53.688;10.776;2023-06-14T05:59:52;101703.16;;;22.07;53.05
52469;BME280;38381;53.688;10.776;2023-06-14T06:04:52;101716.28;;;22.10;53.07
52469;BME280;38381;53.688;10.776;2023-06-14T06:09:53;101717.41;;;22.36;52.72
52469;BME280;38381;53.688;10.776;2023-06-14T06:14:53;101712.22;;;22.31;51.70
52469;BME280;38381;53.688;10.776;2023-06-14T06:19:54;101718.69;;;21.85;53.21
52469;BME280;38381;53.688;10.776;2023-06-14T06:24:54;101711.13;;;22.69;51.12
52469;BME280;38381;53.688;10.776;2023-06-14T06:29:55;101718.72;;;22.82;51.20
52469;BME280;38381;53.688;10.776;2023-06-14T06:34:55;101714.47;;;22.12;49.70
52469;BME280;38381;53.688;10.776;2023-06-14T06:39:56;101718.41;;;22.32;49.95
52469;BME280;38381;53.688;10.776;2023-06-14T06:44:56;101715.13;;;22.20;49.64
52469;BME280;38381;53.688;10.776;2023-06-14T06:49:56;101725.13;;;23.04;48.59
52469;BME280;38381;53.688;10.776;2023-06-14T06:54:57;101725.72;;;23.42;47.04
52469;BME280;38381;53.688;10.776;2023-06-14T06:59:57;101719.78;;;23.62;46.44
52469;BME280;38381;53.688;10.776;2023-06-14T07:04:58;101735.53;;;23.67;47.03
52469;BME280;38381;53.688;10.776;2023-06-14T07:09:58;101741.31;;;24.06;45.57
52469;BME280;38381;53.688;10.776;2023-06-14T07:15:00;101747.75;;;23.71;45.05
52469;BME280;38381;53.688;10.776;2023-06-14T07:20:02;101746.00;;;23.70;44.65
52469;BME280;38381;53.688;10.776;2023-06-14T07:25:12;101746.81;;;23.72;44.78
52469;BME280;38381;53.688;10.776;2023-06-14T07:30:16;101749.59;;;23.41;44.21
52469;BME280;38381;53.688;10.776;2023-06-14T07:35:16;101757.63;;;23.66;44.25
52469;BME280;38381;53.688;10.776;2023-06-14T07:40:16;101757.66;;;23.64;44.76
52469;BME280;38381;53.688;10.776;2023-06-14T07:45:17;101752.38;;;23.64;44.27
52469;BME280;38381;53.688;10.776;2023-06-14T07:50:18;101741.38;;;23.22;44.40
52469;BME280;38381;53.688;10.776;2023-06-14T07:55:18;101746.09;;;23.40;44.83
52469;BME280;38381;53.688;10.776;2023-06-14T08:00:19;101742.47;;;23.15;45.77
52469;BME280;38381;53.688;10.776;2023-06-14T08:05:20;101741.59;;;23.14;46.09
52469;BME280;38381;53.688;10.776;2023-06-14T08:10:22;101746.91;;;23.42;45.85
52469;BME280;38381;53.688;10.776;2023-06-14T08:15:22;101742.81;;;23.32;46.25
52469;BME280;38381;53.688;10.776;2023-06-14T08:20:23;101746.81;;;23.45;46.17
52469;BME280;38381;53.688;10.776;2023-06-14T08:25:24;101747.16;;;23.35;46.33
52469;BME280;38381;53.688;10.776;2023-06-14T08:30:25;101749.22;;;23.25;45.71
52469;BME280;38381;53.688;10.776;2023-06-14T08:35:25;101756.16;;;22.98;45.93
52469;BME280;38381;53.688;10.776;2023-06-14T08:40:26;101754.28;;;23.03;46.47
52469;BME280;38381;53.688;10.776;2023-06-14T08:45:27;101749.06;;;23.01;46.15
52469;BME280;38381;53.688;10.776;2023-06-14T08:50:28;101743.06;;;23.24;46.25
52469;BME280;38381;53.688;10.776;2023-06-14T08:55:30;101744.31;;;23.41;45.85
52469;BME280;38381;53.688;10.776;2023-06-14T09:00:33;101745.56;;;23.57;46.54
52469;BME280;38381;53.688;10.776;2023-06-14T09:05:34;101744.50;;;23.63;45.43
52469;BME280;38381;53.688;10.776;2023-06-14T09:10:35;101747.06;;;23.64;44.51
52469;BME280;38381;53.688;10.776;2023-06-14T09:15:37;101740.41;;;23.24;44.80
52469;BME280;38381;53.688;10.776;2023-06-14T09:20:37;101747.72;;;23.16;45.07
52469;BME280;38381;53.688;10.776;2023-06-14T09:25:45;101745.06;;;23.16;46.33
52469;BME280;38381;53.688;10.776;2023-06-14T09:30:46;101742.47;;;23.43;46.41
52469;BME280;38381;53.688;10.776;2023-06-14T09:35:51;101751.31;;;23.70;44.84
52469;BME280;38381;53.688;10.776;2023-06-14T09:40:51;101741.41;;;23.20;45.03
52469;BME280;38381;53.688;10.776;2023-06-14T09:45:52;101740.53;;;23.48;45.48
52469;BME280;38381;53.688;10.776;2023-06-14T09:50:55;101729.13;;;23.73;45.81
52469;BME280;38381;53.688;10.776;2023-06-14T09:55:58;101725.97;;;23.89;45.61
52469;BME280;38381;53.688;10.776;2023-06-14T10:00:59;101727.78;;;23.61;45.39
52469;BME280;38381;53.688;10.776;2023-06-14T10:06:02;101732.69;;;23.73;45.47
52469;BME280;38381;53.688;10.776;2023-06-14T10:11:07;101726.41;;;23.77;45.69
52469;BME280;38381;53.688;10.776;2023-06-14T10:16:21;101728.28;;;23.72;45.91
52469;BME280;38381;53.688;10.776;2023-06-14T10:21:43;101719.31;;;23.76;44.98
52469;BME280;38381;53.688;10.776;2023-06-14T10:26:51;101725.75;;;23.69;44.41
52469;BME280;38381;53.688;10.776;2023-06-14T10:31:57;101711.38;;;23.78;44.14
52469;BME280;38381;53.688;10.776;2023-06-14T10:37:05;101724.03;;;23.95;42.97
52469;BME280;38381;53.688;10.776;2023-06-14T10:42:06;101716.91;;;23.97;42.59
52469;BME280;38381;53.688;10.776;2023-06-14T10:47:10;101710.19;;;23.86;42.81
52469;BME280;38381;53.688;10.776;2023-06-14T10:52:13;101701.22;;;23.90;42.21
52469;BME280;38381;53.688;10.776;2023-06-14T10:57:19;101705.66;;;24.15;41.89
52469;BME280;38381;53.688;10.776;2023-06-14T11:13:07;101693.75;;;24.02;41.61
52469;BME280;38381;53.688;10.776;2023-06-14T11:18:08;101692.81;;;23.78;41.43
52469;BME280;38381;53.688;10.776;2023-06-14T11:23:11;101701.59;;;23.80;41.69
52469;BME280;38381;53.688;10.776;2023-06-14T11:28:12;101687.66;;;23.73;42.31
52469;BME280;38381;53.688;10.776;2023-06-14T11:33:17;101682.69;;;23.62;42.28
52469;BME280;38381;53.688;10.776;2023-06-14T11:38:18;101681.97;;;23.59;42.56
52469;BME280;38381;53.688;10.776;2023-06-14T11:43:19;101687.25;;;23.59;42.78
52469;BME280;38381;53.688;10.776;2023-06-14T11:48:20;101681.63;;;23.41;43.46
52469;BME280;38381;53.688;10.776;2023-06-14T11:53:20;101673.19;;;23.57;43.41
52469;BME280;38381;53.688;10.776;2023-06-14T11:58:21;101666.56;;;23.70;43.00
52469;BME280;38381;53.688;10.776;2023-06-14T12:03:25;101668.00;;;23.80;42.43
52469;BME280;38381;53.688;10.776;2023-06-14T12:08:32;101652.84;;;24.09;42.11
52469;BME280;38381;53.688;10.776;2023-06-14T12:13:42;101659.81;;;24.12;41.82
52469;BME280;38381;53.688;10.776;2023-06-14T12:18:43;101640.41;;;24.11;41.36
52469;BME280;38381;53.688;10.776;2023-06-14T12:23:44;101638.25;;;24.22;40.60
52469;BME280;38381;53.688;10.776;2023-06-14T12:28:46;101641.06;;;24.18;41.29
52469;BME280;38381;53.688;10.776;2023-06-14T12:33:47;101644.00;;;24.34;40.86
52469;BME280;38381;53.688;10.776;2023-06-14T12:38:49;101651.34;;;24.74;40.91
52469;BME280;38381;53.688;10.776;2023-06-14T12:43:53;101649.66;;;24.48;40.38
52469;BME280;38381;53.688;10.776;2023-06-14T12:48:53;101658.81;;;24.64;40.38
52469;BME280;38381;53.688;10.776;2023-06-14T12:53:54;101656.19;;;24.63;39.67
52469;BME280;38381;53.688;10.776;2023-06-14T12:58:54;101653.09;;;24.52;39.86
52469;BME280;38381;53.688;10.776;2023-06-14T13:03:55;101658.03;;;24.61;39.44
52469;BME280;38381;53.688;10.776;2023-06-14T13:08:55;101663.91;;;24.69;39.57
52469;BME280;38381;53.688;10.776;2023-06-14T13:13:57;101647.16;;;24.68;39.86
52469;BME280;38381;53.688;10.776;2023-06-14T13:18:58;101647.06;;;24.46;39.50
52469;BME280;38381;53.688;10.776;2023-06-14T13:23:58;101643.81;;;24.63;39.44
52469;BME280;38381;53.688;10.776;2023-06-14T13:28:59;101633.88;;;24.68;39.46
52469;BME280;38381;53.688;10.776;2023-06-14T13:33:59;101643.25;;;24.55;39.59
52469;BME280;38381;53.688;10.776;2023-06-14T13:39:00;101637.16;;;24.53;38.83
52469;BME280;38381;53.688;10.776;2023-06-14T13:44:01;101638.16;;;24.73;38.83
52469;BME280;38381;53.688;10.776;2023-06-14T13:49:04;101634.13;;;24.62;38.83
52469;BME280;38381;53.688;10.776;2023-06-14T13:54:05;101634.44;;;24.77;38.19
52469;BME280;38381;53.688;10.776;2023-06-14T13:59:06;101638.38;;;24.66;38.73
52469;BME280;38381;53.688;10.776;2023-06-14T14:04:06;101650.41;;;24.53;38.11
52469;BME280;38381;53.688;10.776;2023-06-14T14:09:08;101630.72;;;24.59;38.21
52469;BME280;38381;53.688;10.776;2023-06-14T14:14:08;101627.34;;;24.55;38.10
52469;BME280;38381;53.688;10.776;2023-06-14T14:19:10;101622.94;;;24.54;37.47
52469;BME280;38381;53.688;10.776;2023-06-14T14:24:10;101625.72;;;24.51;37.15
52469;BME280;38381;53.688;10.776;2023-06-14T14:29:11;101628.09;;;24.34;36.71
52469;BME280;38381;53.688;10.776;2023-06-14T14:34:12;101626.53;;;24.28;36.36
52469;BME280;38381;53.688;10.776;2023-06-14T14:39:12;101623.47;;;23.92;36.05
52469;BME280;38381;53.688;10.776;2023-06-14T14:44:12;101621.69;;;24.16;36.50
52469;BME280;38381;53.688;10.776;2023-06-14T14:49:13;101633.09;;;24.18;36.52
52469;BME280;38381;53.688;10.776;2023-06-14T14:54:13;101630.97;;;24.04;36.09
52469;BME280;38381;53.688;10.776;2023-06-14T14:59:14;101639.78;;;24.04;36.03
52469;BME280;38381;53.688;10.776;2023-06-14T15:04:14;101646.34;;;24.18;35.06
52469;BME280;38381;53.688;10.776;2023-06-14T15:09:15;101628.00;;;23.88;34.73
52469;BME280;38381;53.688;10.776;2023-06-14T15:14:15;101638.78;;;23.83;34.57
52469;BME280;38381;53.688;10.776;2023-06-14T15:19:17;101623.19;;;23.73;35.01
52469;BME280;38381;53.688;10.776;2023-06-14T15:24:18;101625.22;;;23.91;34.79
52469;BME280;38381;53.688;10.776;2023-06-14T15:29:18;101622.00;;;23.56;34.70
52469;BME280;38381;53.688;10.776;2023-06-14T15:34:19;101624.28;;;23.67;34.56
52469;BME280;38381;53.688;10.776;2023-06-14T15:39:20;101630.91;;;23.54;34.50
52469;BME280;38381;53.688;10.776;2023-06-14T15:44:20;101623.78;;;23.56;34.09
52469;BME280;38381;53.688;10.776;2023-06-14T15:49:21;101621.47;;;23.46;33.72
52469;BME280;38381;53.688;10.776;2023-06-14T15:54:21;101623.16;;;23.74;34.42
52469;BME280;38381;53.688;10.776;2023-06-14T15:59:21;101627.00;;;23.65;33.81
52469;BME280;38381;53.688;10.776;2023-06-14T16:04:22;101614.63;;;23.39;33.13
52469;BME280;38381;53.688;10.776;2023-06-14T16:09:22;101611.78;;;23.19;33.09
52469;BME280;38381;53.688;10.776;2023-06-14T16:14:23;101623.38;;;23.15;33.70
52469;BME280;38381;53.688;10.776;2023-06-14T16:19:23;101614.97;;;23.00;34.37
52469;BME280;38381;53.688;10.776;2023-06-14T16:24:24;101615.69;;;23.07;34.44
52469;BME280;38381;53.688;10.776;2023-06-14T16:29:24;101618.91;;;23.17;34.90
52469;BME280;38381;53.688;10.776;2023-06-14T16:34:25;101613.50;;;22.92;35.26
52469;BME280;38381;53.688;10.776;2023-06-14T16:39:26;101612.94;;;23.10;35.01
52469;BME280;38381;53.688;10.776;2023-06-14T16:44:27;101613.66;;;23.15;35.04
52469;BME280;38381;53.688;10.776;2023-06-14T16:49:27;101613.59;;;23.17;35.02
52469;BME280;38381;53.688;10.776;2023-06-14T16:54:28;101617.38;;;23.09;35.01
52469;BME280;38381;53.688;10.776;2023-06-14T16:59:28;101614.31;;;22.94;34.77
52469;BME280;38381;53.688;10.776;2023-06-14T17:04:30;101617.06;;;22.90;34.50
52469;BME280;38381;53.688;10.776;2023-06-14T17:09:31;101623.72;;;23.04;35.30
52469;BME280;38381;53.688;10.776;2023-06-14T17:14:31;101618.06;;;22.86;34.49
52469;BME280;38381;53.688;10.776;2023-06-14T17:19:32;101614.56;;;22.86;34.64
52469;BME280;38381;53.688;10.776;2023-06-14T17:24:33;101614.75;;;22.80;34.36
52469;BME280;38381;53.688;10.776;2023-06-14T17:29:33;101621.88;;;22.78;34.96
52469;BME280;38381;53.688;10.776;2023-06-14T17:34:34;101622.41;;;22.59;35.18
52469;BME280;38381;53.688;10.776;2023-06-14T17:39:34;101627.06;;;22.51;35.38
52469;BME280;38381;53.688;10.776;2023-06-14T17:44:36;101627.47;;;22.37;35.73
52469;BME280;38381;53.688;10.776;2023-06-14T17:49:36;101622.91;;;22.44;36.15
52469;BME280;38381;53.688;10.776;2023-06-14T17:54:37;101622.09;;;22.40;36.65
52469;BME280;38381;53.688;10.776;2023-06-14T17:59:37;101624.44;;;22.20;36.97
52469;BME280;38381;53.688;10.776;2023-06-14T18:04:38;101627.09;;;22.18;36.98
52469;BME280;38381;53.688;10.776;2023-06-14T18:09:38;101627.22;;;22.15;37.26
52469;BME280;38381;53.688;10.776;2023-06-14T18:14:39;101632.09;;;21.96;36.78
52469;BME280;38381;53.688;10.776;2023-06-14T18:19:39;101631.44;;;21.88;36.61
52469;BME280;38381;53.688;10.776;2023-06-14T18:24:42;101633.66;;;21.72;36.44
52469;BME280;38381;53.688;10.776;2023-06-14T18:29:42;101638.28;;;21.62;36.80
52469;BME280;38381;53.688;10.776;2023-06-14T18:34:43;101642.47;;;21.35;37.72
52469;BME280;38381;53.688;10.776;2023-06-14T18:39:43;101646.84;;;21.35;37.71
52469;BME280;38381;53.688;10.776;2023-06-14T18:44:44;101645.41;;;21.23;38.34
52469;BME280;38381;53.688;10.776;2023-06-14T18:49:44;101645.53;;;21.17;37.86
52469;BME280;38381;53.688;10.776;2023-06-14T18:54:45;101642.31;;;21.04;38.80
52469;BME280;38381;53.688;10.776;2023-06-14T18:59:45;101648.69;;;20.94;38.80
52469;BME280;38381;53.688;10.776;2023-06-14T19:04:46;101642.69;;;20.87;39.34
52469;BME280;38381;53.688;10.776;2023-06-14T19:09:46;101645.75;;;20.67;39.11
52469;BME280;38381;53.688;10.776;2023-06-14T19:14:47;101645.94;;;20.59;39.30
52469;BME280;38381;53.688;10.776;2023-06-14T19:19:47;101654.84;;;20.52;39.90
52469;BME280;38381;53.688;10.776;2023-06-14T19:24:48;101659.16;;;20.55;40.32
52469;BME280;38381;53.688;10.776;2023-06-14T19:29:48;101656.78;;;20.42;40.62
52469;BME280;38381;53.688;10.776;2023-06-14T19:34:49;101659.75;;;20.25;40.84
52469;BME280;38381;53.688;10.776;2023-06-14T19:39:49;101657.25;;;20.18;41.21
52469;BME280;38381;53.688;10.776;2023-06-14T19:44:50;101670.00;;;19.96;42.54
52469;BME280;38381;53.688;10.776;2023-06-14T19:49:50;101671.09;;;19.81;42.65
52469;BME280;38381;53.688;10.776;2023-06-14T19:54:51;101667.75;;;19.73;42.88
52469;BME280;38381;53.688;10.776;2023-06-14T19:59:51;101670.53;;;19.62;43.63
52469;BME280;38381;53.688;10.776;2023-06-14T20:04:52;101677.75;;;19.49;43.97
52469;BME280;38381;53.688;10.776;2023-06-14T20:09:54;101682.28;;;19.39;44.33
52469;BME280;38381;53.688;10.776;2023-06-14T20:14:55;101686.97;;;19.19;44.89
52469;BME280;38381;53.688;10.776;2023-06-14T20:19:55;101679.25;;;19.09;45.67
52469;BME280;38381;53.688;10.776;2023-06-14T20:24:56;101694.38;;;18.90;45.75
52469;BME280;38381;53.688;10.776;2023-06-14T20:29:56;101689.25;;;18.78;46.62
52469;BME280;38381;53.688;10.776;2023-06-14T20:34:57;101686.81;;;18.64;46.94
52469;BME280;38381;53.688;10.776;2023-06-14T20:39:57;101688.69;;;18.53;47.44
52469;BME280;38381;53.688;10.776;2023-06-14T20:45:03;101686.97;;;18.49;48.25
52469;BME280;38381;53.688;10.776;2023-06-14T20:50:04;101685.34;;;18.37;49.01
52469;BME280;38381;53.688;10.776;2023-06-14T20:55:06;101687.19;;;18.30;49.54
52469;BME280;38381;53.688;10.776;2023-06-14T21:00:07;101689.06;;;18.19;50.60
52469;BME280;38381;53.688;10.776;2023-06-14T21:05:11;101681.31;;;18.05;51.35
52469;BME280;38381;53.688;10.776;2023-06-14T21:10:11;101686.72;;;17.90;52.21
52469;BME280;38381;53.688;10.776;2023-06-14T21:15:12;101684.13;;;17.87;53.33
52469;BME280;38381;53.688;10.776;2023-06-14T21:20:12;101684.16;;;17.81;54.04
52469;BME280;38381;53.688;10.776;2023-06-14T21:25:13;101684.22;;;17.73;54.48
52469;BME280;38381;53.688;10.776;2023-06-14T21:30:15;101689.56;;;17.62;55.24
52469;BME280;38381;53.688;10.776;2023-06-14T21:35:18;101688.75;;;17.53;56.07
52469;BME280;38381;53.688;10.776;2023-06-14T21:40:19;101694.03;;;17.45;56.41
52469;BME280;38381;53.688;10.776;2023-06-14T21:45:19;101691.50;;;17.37;57.53
52469;BME280;38381;53.688;10.776;2023-06-14T21:50:20;101694.16;;;17.28;57.90
52469;BME280;38381;53.688;10.776;2023-06-14T21:55:20;101694.22;;;17.17;58.87
52469;BME280;38381;53.688;10.776;2023-06-14T22:00:23;101694.31;;;17.05;58.98
52469;BME280;38381;53.688;10.776;2023-06-14T22:05:24;101699.56;;;16.96;59.42
52469;BME280;38381;53.688;10.776;2023-06-14T22:10:25;101701.38;;;16.89;60.46
52469;BME280;38381;53.688;10.776;2023-06-14T22:15:26;101697.03;;;16.88;60.32
52469;BME280;38381;53.688;10.776;2023-06-14T22:20:27;101706.63;;;16.78;61.85
52469;BME280;38381;53.688;10.776;2023-06-14T22:25:29;101699.69;;;16.68;61.74
52469;BME280;38381;53.688;10.776;2023-06-14T22:30:30;101703.19;;;16.61;62.52
52469;BME280;38381;53.688;10.776;2023-06-14T22:35:32;101699.75;;;16.49;63.00
52469;BME280;38381;53.688;10.776;2023-06-14T22:40:33;101691.91;;;16.43;63.33
52469;BME280;38381;53.688;10.776;2023-06-14T22:45:33;101705.91;;;16.28;63.26
52469;BME280;38381;53.688;10.776;2023-06-14T22:50:36;101703.31;;;16.22;63.78
52469;BME280;38381;53.688;10.776;2023-06-14T22:55:37;101712.94;;;16.08;64.04
52469;BME280;38381;53.688;10.776;2023-06-14T23:00:38;101707.69;;;16.02;65.42
52469;BME280;38381;53.688;10.776;2023-06-14T23:05:39;101704.19;;;15.97;65.81
52469;BME280;38381;53.688;10.776;2023-06-14T23:10:41;101697.22;;;15.91;66.76
52469;BME280;38381;53.688;10.776;2023-06-14T23:15:42;101707.72;;;15.83;66.70
52469;BME280;38381;53.688;10.776;2023-06-14T23:20:43;101714.66;;;15.78;66.68
52469;BME280;38381;53.688;10.776;2023-06-14T23:25:43;101711.16;;;15.59;66.58
52469;BME280;38381;53.688;10.776;2023-06-14T23:30:45;101700.66;;;15.56;66.23
52469;BME280;38381;53.688;10.776;2023-06-14T23:35:46;101710.25;;;15.56;66.63
52469;BME280;38381;53.688;10.776;2023-06-14T23:40:47;101710.25;;;15.45;67.11
52469;BME280;38381;53.688;10.776;2023-06-14T23:45:50;101709.38;;;15.41;67.15
52469;BME280;38381;53.688;10.776;2023-06-14T23:50:55;101706.75;;;15.32;67.16
52469;BME280;38381;53.688;10.776;2023-06-14T23:55:56;101705.88;;;15.24;67.20
